Time;durP1;ratioP1;P1;durP2;ratioP2;P2;SDS_P1;SDS_P2;PMS_P1;PMS_P2;Temp;Humidity;BMP_temperature;BMP_pressure;BME280_temperature;BME280_humidity;BME280_pressure;Samples;Min_cycle;Max_cycle;Signal;HPM_P1;HPM_P2
2022/12/09 00:01:18;;;;;;;56.13;23.40;;;;;;;;;;5136179;27;20050;-77
2022/12/09 00:03:45;;;;;;;57.55;25.27;;;;;;;;;;5136113;27;20043;-77
2022/12/09 00:06:14;;;;;;;44.75;22.42;;;;;;;;;;5154405;27;20054;-77
2022/12/09 00:08:40;;;;;;;51.45;22.58;;;;;;;;;;5154312;27;20045;-77
2022/12/09 00:11:06;;;;;;;44.97;22.05;;;;;;;;;;5153883;27;20130;-77
2022/12/09 00:13:32;;;;;;;;;;;;;;;;;;5136366;27;20051;-77
2022/12/09 00:15:58;;;;;;;54.47;24.65;;;;;;;;;;5154181;27;19926;-77
2022/12/09 00:18:24;;;;;;;46.65;23.20;;;;;;;;;;5153839;27;20475;-76
2022/12/09 00:20:51;;;;;;;38.85;21.05;;;;;;;;;;5118299;27;20410;-76
2022/12/09 00:23:17;;;;;;;40.10;20.83;;;;;;;;;;5153404;27;20050;-77
2022/12/09 00:25:43;;;;;;;40.47;20.10;;;;;;;;;;5153470;27;20137;-77
2022/12/09 00:28:09;;;;;;;37.53;19.33;;;;;;;;;;5153901;27;20047;-77
2022/12/09 00:30:35;;;;;;;40.60;21.42;;;;;;;;;;5153848;27;20038;-76
2022/12/09 00:33:01;;;;;;;41.58;21.27;;;;;;;;;;5153905;27;20051;-76
2022/12/09 00:35:27;;;;;;;33.35;19.83;;;;;;;;;;5153561;27;20141;-76
2022/12/09 00:37:53;;;;;;;40.17;22.40;;;;;;;;;;5153922;27;20058;-76
2022/12/09 00:40:19;;;;;;;35.90;20.17;;;;;;;;;;5153524;27;20038;-76
2022/12/09 00:42:45;;;;;;;41.55;22.42;;;;;;;;;;5134993;27;20490;-76
2022/12/09 00:45:11;;;;;;;39.75;21.38;;;;;;;;;;5135435;27;20082;-76
2022/12/09 00:47:37;;;;;;;51.03;23.45;;;;;;;;;;5153693;27;20158;-75
2022/12/09 00:50:05;;;;;;;76.65;25.08;;;;;;;;;;5153539;27;20050;-76
2022/12/09 00:52:31;;;;;;;66.57;25.75;;;;;;;;;;5153587;27;20054;-76
2022/12/09 00:54:57;;;;;;;58.15;24.42;;;;;;;;;;5134977;27;20047;-75
2022/12/09 00:57:23;;;;;;;61.28;23.17;;;;;;;;;;5153663;27;20047;-75
2022/12/09 00:59:49;;;;;;;72.72;25.25;;;;;;;;;;5153554;27;20040;-75
2022/12/09 01:02:15;;;;;;;117.80;27.45;;;;;;;;;;5135029;27;20050;-76
2022/12/09 01:04:41;;;;;;;167.95;34.45;;;;;;;;;;5153463;27;20047;-75
2022/12/09 01:07:09;;;;;;;155.18;32.55;;;-1.20;99.90;;;;;;5135194;27;20047;-75
2022/12/09 01:09:36;;;;;;;116.15;28.90;;;;;;;;;;5134939;27;20050;-76
2022/12/09 01:12:02;;;;;;;;;;;;;;;;;;5153859;27;20062;-75
2022/12/09 01:14:28;;;;;;;65.53;24.13;;;;;;;;;;5153481;27;19971;-74
2022/12/09 01:16:54;;;;;;;68.28;26.63;;;;;;;;;;5134892;27;20046;-75
2022/12/09 01:19:20;;;;;;;59.47;24.20;;;;;;;;;;5153393;27;20047;-75
2022/12/09 01:21:46;;;;;;;59.38;24.45;;;;;;;;;;5153403;27;20046;-74
2022/12/09 01:24:13;;;;;;;63.00;23.05;;;;;;;;;;5134816;27;20133;-75
2022/12/09 01:26:39;;;;;;;77.20;25.15;;;;;;;;;;5153393;27;20043;-74
2022/12/09 01:29:06;;;;;;;61.10;23.38;;;;;;;;;;5153295;27;20047;-75
2022/12/09 01:31:32;;;;;;;48.80;23.83;;;;;;;;;;5153280;27;20398;-75
2022/12/09 01:33:58;;;;;;;50.72;23.45;;;;;;;;;;5152974;27;20474;-74
2022/12/09 01:36:27;;;;;;;73.88;23.80;;;;;;;;;;5155982;27;20491;-75
2022/12/09 01:38:54;;;;;;;70.70;26.65;;;;;;;;;;5156878;27;20486;-74
2022/12/09 01:41:20;;;;;;;;;;;;;;;;;;5139322;27;20141;-74
2022/12/09 01:44:06;;;;;;;77.27;28.63;;;;;;;;;;5157251;27;20013;-74
2022/12/09 01:46:32;;;;;;;113.82;29.75;;;;;;;;;;5157137;27;20133;-75
2022/12/09 01:48:58;;;;;;;86.28;27.52;;;;;;;;;;5138398;27;20051;-74
2022/12/09 01:51:24;;;;;;;78.07;24.27;;;;;;;;;;5156990;27;20042;-74
2022/12/09 01:53:51;;;;;;;70.03;26.63;;;;;;;;;;5156378;27;20549;-74
2022/12/09 01:56:36;;;;;;;96.00;26.77;;;;;;;;;;5156950;27;20145;-75
2022/12/09 01:59:06;;;;;;;138.27;29.92;;;;;;;;;;5156945;27;20055;-74
2022/12/09 02:01:32;;;;;;;142.27;29.80;;;;;;;;;;5156838;27;20455;-74
2022/12/09 02:03:59;;;;;;;159.35;29.63;;;;;;;;;;5156873;27;20050;-74
2022/12/09 02:06:24;;;;;;;;;;;;;;;;;;5156951;27;20402;-74
2022/12/09 02:08:51;;;;;;;120.40;30.00;;;;;;;;;;5156409;27;19930;-74
2022/12/09 02:11:21;;;;;;;105.07;28.23;;;;;;;;;;5156581;27;20039;-74
2022/12/09 02:13:58;;;;;;;88.10;28.75;;;;;;;;;;5156617;27;20042;-75
2022/12/09 02:16:25;;;;;;;61.78;26.00;;;;;;;;;;5156587;27;20482;-74
2022/12/09 02:18:57;;;;;;;68.07;27.83;;;;;;;;;;5156450;27;20051;-74
2022/12/09 02:21:31;;;;;;;67.72;27.92;;;;;;;;;;5156246;27;20051;-74
2022/12/09 02:23:57;;;;;;;57.88;25.10;;;;;;;;;;5156424;27;20070;-73
2022/12/09 02:26:28;;;;;;;58.85;26.85;;;;;;;;;;5156351;27;20482;-73
2022/12/09 02:29:01;;;;;;;60.00;25.10;;;;;;;;;;5137967;27;20632;-74
2022/12/09 02:31:27;;;;;;;60.67;26.52;;;;;;;;;;5156307;27;20113;-74
2022/12/09 02:34:19;;;;;;;62.42;25.88;;;-1.10;99.90;;;;;;5155888;27;20384;-73
2022/12/09 02:37:05;;;;;;;60.10;26.23;;;;;;;;;;5155377;27;20063;-73
2022/12/09 02:39:38;;;;;;;62.95;25.00;;;;;;;;;;5138022;27;20062;-73
2022/12/09 02:42:05;;;;;;;52.97;22.58;;;;;;;;;;5137498;27;20041;-74
2022/12/09 02:44:32;;;;;;;54.10;22.08;;;;;;;;;;5155909;27;20080;-73
2022/12/09 02:46:59;;;;;;;60.03;23.60;;;;;;;;;;5154854;27;20115;-73
2022/12/09 02:49:27;;;;;;;51.35;21.15;;;-1.20;99.90;;;;;;5155856;27;20050;-73
2022/12/09 02:51:53;;;;;;;49.60;22.42;;;;;;;;;;5155514;27;20073;-76
2022/12/09 02:54:19;;;;;;;;;;;;;;;;;;5156285;27;20039;-74
2022/12/09 02:56:57;;;;;;;48.10;22.38;;;;;;;;;;5155767;27;19930;-73
2022/12/09 02:59:23;;;;;;;49.70;22.33;;;;;;;;;;5155730;27;20483;-74
2022/12/09 03:01:49;;;;;;;49.75;20.00;;;;;;;;;;5155610;27;20045;-73
2022/12/09 03:04:20;;;;;;;45.72;20.75;;;;;;;;;;5155581;27;20051;-74
2022/12/09 03:06:50;;;;;;;48.85;20.75;;;;;;;;;;5155483;27;20039;-73
2022/12/09 03:09:23;;;;;;;50.42;20.92;;;;;;;;;;5155500;27;20047;-73
2022/12/09 03:11:50;;;;;;;43.13;19.92;;;;;;;;;;5155425;27;20098;-74
2022/12/09 03:14:18;;;;;;;45.03;20.40;;;;;;;;;;5155454;27;20368;-73
2022/12/09 03:16:48;;;;;;;42.30;19.73;;;;;;;;;;5136973;27;20124;-73
2022/12/09 03:19:21;;;;;;;46.25;20.17;;;;;;;;;;5154995;27;20043;-73
2022/12/09 03:21:48;;;;;;;46.70;19.55;;;;;;;;;;5155305;27;20049;-73
2022/12/09 03:24:20;;;;;;;43.00;19.27;;;;;;;;;;5155266;27;20390;-73
2022/12/09 03:26:48;;;;;;;52.40;19.70;;;;;;;;;;5154960;27;20508;-73
2022/12/09 03:29:16;;;;;;;43.05;19.27;;;;;;;;;;5155108;27;20058;-73
2022/12/09 03:31:43;;;;;;;40.58;20.17;;;;;;;;;;5136539;27;20094;-73
2022/12/09 03:34:13;;;;;;;43.58;19.35;;;;;;;;;;5136542;27;20388;-74
2022/12/09 03:36:40;;;;;;;43.95;18.48;;;;;;;;;;5154738;27;20059;-74
2022/12/09 03:39:09;;;;;;;41.40;18.75;;;;;;;;;;5155000;27;20082;-74
2022/12/09 03:41:36;;;;;;;42.38;18.75;;;;;;;;;;5154928;27;20491;-74
2022/12/09 03:44:12;;;;;;;40.40;18.40;;;;;;;;;;5154816;27;20042;-74
2022/12/09 03:46:38;;;;;;;42.15;18.92;;;;;;;;;;5154503;27;20494;-73
2022/12/09 03:49:05;;;;;;;43.13;19.02;;;;;;;;;;5154513;27;20141;-75
2022/12/09 03:51:31;;;;;;;43.10;19.65;;;;;;;;;;5154307;27;20617;-73
2022/12/09 03:54:03;;;;;;;43.15;19.08;;;;;;;;;;5154603;27;20058;-74
2022/12/09 03:56:35;;;;;;;45.33;20.20;;;;;;;;;;5154547;27;20078;-74
2022/12/09 03:59:03;;;;;;;38.33;18.33;;;;;;;;;;5154247;27;20047;-74
2022/12/09 04:01:29;;;;;;;41.63;18.60;;;;;;;;;;5154452;27;20046;-75
2022/12/09 04:03:56;;;;;;;37.70;18.23;;;;;;;;;;5154227;27;20505;-76
2022/12/09 04:06:22;;;;;;;43.30;19.33;;;;;;;;;;5154390;27;20045;-73
2022/12/09 04:08:48;;;;;;;45.30;20.63;;;;;;;;;;5154371;27;20038;-74
2022/12/09 04:11:14;;;;;;;43.38;18.75;;;;;;;;;;5154287;27;20078;-74
2022/12/09 04:13:40;;;;;;;43.83;18.75;;;;;;;;;;5154476;27;20265;-73
2022/12/09 04:16:08;;;;;;;50.72;19.48;;;;;;;;;;5154204;27;20110;-74
2022/12/09 04:18:34;;;;;;;41.45;19.27;;;;;;;;;;5135457;27;20087;-76
2022/12/09 04:21:01;;;;;;;45.25;19.27;;;;;;;;;;5154109;27;20045;-74
2022/12/09 04:23:27;;;;;;;44.03;19.75;;;;;;;;;;5154092;27;20095;-74
2022/12/09 04:25:53;;;;;;;40.22;18.25;;;;;;;;;;5154041;27;20053;-74
2022/12/09 04:28:20;;;;;;;45.40;19.80;;;;;;;;;;5153665;27;20447;-74
2022/12/09 04:30:46;;;;;;;44.95;18.48;;;;;;;;;;5154009;27;20390;-74
2022/12/09 04:33:12;;;;;;;;;;;;;;;;;;5154057;27;20057;-75
2022/12/09 04:35:38;;;;;;;44.05;19.98;;;;;;;;;;5153539;27;20353;-75
2022/12/09 04:38:04;;;;;;;40.83;18.15;;;;;;;;;;5153643;27;20494;-76
2022/12/09 04:40:30;;;;;;;45.03;19.45;;;;;;;;;;5153791;27;20039;-75
2022/12/09 04:42:57;;;;;;;37.88;19.02;;;;;;;;;;5153798;27;20383;-75
2022/12/09 04:45:23;;;;;;;44.08;19.55;;;;;;;;;;5153728;27;20129;-75
2022/12/09 04:47:49;;;;;;;40.85;18.15;;;;;;;;;;5153490;27;20053;-75
2022/12/09 04:50:16;;;;;;;44.78;18.85;;;;;;;;;;5153564;27;20043;-75
2022/12/09 04:52:42;;;;;;;44.95;19.02;;;;;;;;;;5153711;27;20046;-75
2022/12/09 04:55:08;;;;;;;43.00;17.70;;;;;;;;;;5153656;27;20086;-76
2022/12/09 04:57:35;;;;;;;46.05;20.55;;;;;;;;;;5153713;27;20050;-77
2022/12/09 05:00:01;;;;;;;44.97;19.15;;;;;;;;;;5153659;27;20073;-76
2022/12/09 05:02:27;;;;;;;;;;;;;;;;;;5153790;27;20138;-76
2022/12/09 05:04:53;;;;;;;50.45;20.50;;;;;;;;;;5153586;27;20478;-75
2022/12/09 05:07:19;;;;;;;41.75;19.48;;;;;;;;;;5153442;27;20054;-76
2022/12/09 05:09:45;;;;;;;51.88;19.88;;;;;;;;;;5153831;27;20054;-76
2022/12/09 05:12:11;;;;;;;48.78;19.30;;;;;;;;;;5157719;27;20043;-76
2022/12/09 05:14:37;;;;;;;47.30;19.27;;;;;;;;;;5157765;27;20046;-75
2022/12/09 05:17:03;;;;;;;44.13;18.60;;;;;;;;;;5157443;27;20130;-76
2022/12/09 05:19:29;;;;;;;41.47;17.83;;;;;;;;;;5157444;27;20790;-77
2022/12/09 05:21:55;;;;;;;46.75;18.08;;;;;;;;;;5157621;27;20498;-76
2022/12/09 05:24:21;;;;;;;41.55;17.40;;;;;;;;;;5157534;27;20046;-76
2022/12/09 05:26:47;;;;;;;43.45;16.95;;;;;;;;;;5139019;27;20095;-76
2022/12/09 05:29:14;;;;;;;43.25;17.70;;;;;;;;;;5157598;27;20129;-76
2022/12/09 05:31:40;;;;;;;41.95;16.75;;;;;;;;;;5138950;27;20050;-77
2022/12/09 05:34:06;;;;;;;40.65;16.58;;;;;;;;;;5157530;27;20176;-77
2022/12/09 05:36:32;;;;;;;39.00;16.00;;;;;;;;;;5156974;27;20518;-77
2022/12/09 05:38:58;;;;;;;37.30;16.73;;;;;;;;;;5157291;27;20042;-76
2022/12/09 05:41:24;;;;;;;43.10;17.80;;;;;;;;;;5138912;27;20466;-76
2022/12/09 05:43:50;;;;;;;37.63;17.05;;;;;;;;;;5156984;27;20647;-79
2022/12/09 05:46:17;;;;;;;42.10;17.23;;;;;;;;;;5157152;27;20047;-77
2022/12/09 05:48:43;;;;;;;42.92;17.38;;;;;;;;;;5157176;27;20102;-77
2022/12/09 05:51:14;;;;;;;38.30;17.75;;;;;;;;;;5138689;27;20047;-77
2022/12/09 05:53:41;;;;;;;40.33;18.35;;;;;;;;;;5156975;27;20176;-77
2022/12/09 05:56:07;;;;;;;39.03;18.10;;;;;;;;;;5156941;27;20047;-77
2022/12/09 05:58:33;;;;;;;42.45;17.15;;;;;;;;;;5156609;27;20130;-77
2022/12/09 06:01:06;;;;;;;37.30;16.30;;;;;;;;;;5156848;27;20390;-77
2022/12/09 06:03:33;;;;;;;39.00;16.52;;;;;;;;;;5156671;27;20082;-77
2022/12/09 06:05:59;;;;;;;42.72;17.85;;;;;;;;;;5156746;27;20043;-77
2022/12/09 06:08:25;;;;;;;40.33;17.27;;;;;;;;;;5156749;27;20111;-77
2022/12/09 06:10:51;;;;;;;41.15;17.15;;;;;;;;;;5156652;27;20046;-77
2022/12/09 06:13:17;;;;;;;44.05;17.83;;;;;;;;;;5156403;27;20042;-77
2022/12/09 06:15:43;;;;;;;40.88;17.67;;;;;;;;;;5138181;27;20111;-77
2022/12/09 06:18:09;;;;;;;38.63;17.58;;;;;;;;;;5156544;27;20043;-77
2022/12/09 06:20:38;;;;;;;45.40;18.08;;;;;;;;;;5138199;27;20043;-77
2022/12/09 06:23:04;;;;;;;44.53;17.85;;;;;;;;;;5156431;27;20142;-76
2022/12/09 06:25:30;;;;;;;46.45;18.92;;;;;;;;;;5120718;27;20043;-77
2022/12/09 06:27:56;;;;;;;48.45;18.50;;;;;;;;;;5156102;27;20051;-77
2022/12/09 06:30:22;;;;;;;46.03;18.98;;;;;;;;;;5137884;27;20051;-76
2022/12/09 06:32:48;;;;;;;45.22;18.65;;;;;;;;;;5156262;27;20107;-77
2022/12/09 06:35:14;;;;;;;45.17;17.92;;;;;;;;;;5155968;27;20114;-77
2022/12/09 06:37:40;;;;;;;45.65;17.02;;;;;;;;;;5156144;27;20082;-77
2022/12/09 06:40:07;;;;;;;43.05;17.23;;;;;;;;;;5137772;27;20512;-76
2022/12/09 06:42:33;;;;;;;44.25;17.85;;;;;;;;;;5155783;27;20118;-77
2022/12/09 06:44:59;;;;;;;46.13;17.75;;;;;;;;;;5156133;27;20051;-77
2022/12/09 06:47:25;;;;;;;43.63;17.70;;;;;;;;;;5156023;27;20055;-77
2022/12/09 06:49:51;;;;;;;38.03;16.70;;;;;;;;;;5155902;27;20050;-79
2022/12/09 06:52:17;;;;;;;40.85;16.10;;;;;;;;;;5155860;27;20038;-78
2022/12/09 06:54:43;;;;;;;39.20;16.00;;;;;;;;;;5155893;27;20043;-77
2022/12/09 06:57:09;;;;;;;39.92;16.35;;;;;;;;;;5155485;27;20046;-77
2022/12/09 06:59:35;;;;;;;37.42;16.38;;;;;;;;;;5155831;27;20391;-77
2022/12/09 07:02:01;;;;;;;43.03;16.40;;;-0.80;99.90;;;;;;5155754;27;20149;-78
2022/12/09 07:04:27;;;;;;;45.30;16.60;;;;;;;;;;5137238;27;20126;-77
2022/12/09 07:06:53;;;;;;;43.90;16.33;;;;;;;;;;5155648;27;20053;-77
2022/12/09 07:09:20;;;;;;;46.72;17.88;;;;;;;;;;5155596;27;20071;-77
2022/12/09 07:11:47;;;;;;;43.67;17.10;;;;;;;;;;5155176;27;20444;-77
2022/12/09 07:14:13;;;;;;;;;;;;;;;;;;5155891;27;20479;-76
2022/12/09 07:16:39;;;;;;;54.35;19.70;;;;;;;;;;5155419;27;19926;-77
2022/12/09 07:19:05;;;;;;;50.60;19.40;;;;;;;;;;5137068;27;20038;-76
2022/12/09 07:21:32;;;;;;;47.05;17.48;;;;;;;;;;5155412;27;20074;-76
2022/12/09 07:23:58;;;;;;;;;;;;;;;;;;5155750;27;20103;-76
2022/12/09 07:26:24;;;;;;;43.88;19.52;;;;;;;;;;5136872;27;19919;-75
2022/12/09 07:28:50;;;;;;;46.05;18.55;;;;;;;;;;5155223;27;20478;-76
2022/12/09 07:31:20;;;;;;;49.63;20.08;;;;;;;;;;5136593;27;20779;-77
2022/12/09 07:33:47;;;;;;;47.63;17.60;;;;;;;;;;5154303;27;20826;-76
2022/12/09 07:36:13;;;;;;;40.25;14.40;;;;;;;;;;5154617;27;20058;-75
2022/12/09 07:38:39;;;;;;;48.28;15.77;;;;;;;;;;5154924;27;20095;-75
2022/12/09 07:41:16;;;;;;;43.65;15.07;;;;;;;;;;5154614;27;20038;-75
2022/12/09 07:43:42;;;;;;;41.33;14.20;;;;;;;;;;5154892;27;20406;-77
2022/12/09 07:46:08;;;;;;;41.40;15.38;;;;;;;;;;5154865;27;20047;-75
2022/12/09 07:48:34;;;;;;;35.72;13.05;;;;;;;;;;5154773;27;20050;-76
2022/12/09 07:51:01;;;;;;;35.88;15.10;;;;;;;;;;5154634;27;20086;-75
2022/12/09 07:53:28;;;;;;;46.35;14.95;;;;;;;;;;5154726;27;20051;-75
2022/12/09 07:55:54;;;;;;;42.97;15.90;;;;;;;;;;5154287;27;20050;-75
2022/12/09 07:58:20;;;;;;;36.17;14.13;;;;;;;;;;5154585;27;20053;-76
2022/12/09 08:00:46;;;;;;;36.38;14.23;;;;;;;;;;5154563;27;20050;-75
2022/12/09 08:03:13;;;;;;;46.63;18.20;;;;;;;;;;5154422;27;20053;-75
2022/12/09 08:05:48;;;;;;;45.03;18.33;;;;;;;;;;5154428;27;20054;-75
2022/12/09 08:08:15;;;;;;;44.65;18.52;;;;;;;;;;5154377;27;20053;-76
2022/12/09 08:10:41;;;;;;;47.03;18.40;;;;;;;;;;5153889;27;20043;-75
2022/12/09 08:13:08;;;;;;;47.05;18.30;;;;;;;;;;5154291;27;20054;-75
2022/12/09 08:15:34;;;;;;;48.60;17.73;;;;;;;;;;5154204;27;20042;-75
2022/12/09 08:18:00;;;;;;;;;;;;;;;;;;5136249;27;20038;-75
2022/12/09 08:20:26;;;;;;;50.15;20.40;;;;;;;;;;5154127;27;19926;-75
2022/12/09 08:22:52;;;;;;;51.22;19.63;;;;;;;;;;5154034;27;20093;-75
2022/12/09 08:25:18;;;;;;;49.00;18.80;;;;;;;;;;5153755;27;20050;-75
2022/12/09 08:27:44;;;;;;;57.92;20.33;;;;;;;;;;5154021;27;20458;-75
2022/12/09 08:30:10;;;;;;;51.22;20.02;;;;;;;;;;5153915;27;20620;-75
2022/12/09 08:32:36;;;;;;;47.67;19.40;;;;;;;;;;5153998;27;20039;-75
2022/12/09 08:35:03;;;;;;;60.00;21.20;;;;;;;;;;5153655;27;20057;-75
2022/12/09 08:37:29;;;;;;;50.30;21.35;;;;;;;;;;5153969;27;20042;-74
2022/12/09 08:39:55;;;;;;;52.88;20.20;;;;;;;;;;5153553;27;20134;-74
2022/12/09 08:42:21;;;;;;;52.47;20.65;;;;;;;;;;5118353;27;20058;-75
2022/12/09 08:44:49;;;;;;;54.28;22.27;;;;;;;;;;5152786;27;20047;-75
2022/12/09 08:47:15;;;;;;;60.13;22.17;;;;;;;;;;5118684;27;20447;-75
2022/12/09 08:49:41;;;;;;;53.50;21.05;;;;;;;;;;5153728;27;20062;-74
2022/12/09 08:52:07;;;;;;;61.42;21.42;;;;;;;;;;5148027;27;20045;-75
2022/12/09 08:54:33;;;;;;;60.97;22.23;;;;;;;;;;5152726;27;20129;-74
2022/12/09 08:56:59;;;;;;;64.57;22.00;;;0.20;99.90;;;;;;5152974;27;20107;-74
2022/12/09 08:59:25;;;;;;;78.13;24.45;;;;;;;;;;5152785;27;20042;-71
2022/12/09 09:01:51;;;;;;;75.57;23.75;;;;;;;;;;5152995;27;20506;-71
2022/12/09 09:04:18;;;;;;;78.43;25.35;;;;;;;;;;5152969;27;20042;-72
2022/12/09 09:06:47;;;;;;;81.53;25.73;;;;;;;;;;5153006;27;20042;-71
2022/12/09 09:09:13;;;;;;;80.32;24.85;;;;;;;;;;5152685;27;20054;-73
2022/12/09 09:11:39;;;;;;;;;;;;;;;;;;5134851;27;20123;-73
2022/12/09 09:14:06;;;;;;;82.68;24.63;;;;;;;;;;5152955;27;19975;-71
2022/12/09 09:16:32;;;;;;;80.93;24.65;;;;;;;;;;5152890;27;20038;-71
2022/12/09 09:18:58;;;;;;;84.90;25.70;;;;;;;;;;5134231;27;20061;-71
2022/12/09 09:21:26;;;;;;;93.65;24.38;;;;;;;;;;5152876;27;20049;-72
2022/12/09 09:23:52;;;;;;;90.05;24.55;;;;;;;;;;5153124;27;20461;-71
2022/12/09 09:26:20;;;;;;;101.20;26.05;;;;;;;;;;5153142;27;20051;-73
2022/12/09 09:28:47;;;;;;;91.22;24.50;;;;;;;;;;5152733;27;20074;-72
2022/12/09 09:31:14;;;;;;;94.20;26.02;;;;;;;;;;5140592;27;20043;-78
2022/12/09 09:33:41;;;;;;;96.63;26.23;;;;;;;;;;5150215;27;20260;-78
2022/12/09 09:36:10;;;;;;;92.35;26.38;;;0.70;99.90;;;;;;5146313;27;20055;-78
2022/12/09 09:38:36;;;;;;;92.47;25.73;;;;;;;;;;5148733;27;20050;-77
2022/12/09 09:41:20;;;;;;;97.85;26.08;;;;;;;;;;5152972;27;20061;-78
2022/12/09 09:43:46;;;;;;;87.78;24.88;;;;;;;;;;5152863;27;20062;-76
2022/12/09 09:46:18;;;;;;;92.03;24.67;;;;;;;;;;5152500;27;20098;-81
2022/12/09 09:48:45;;;;;;;79.30;24.25;;;;;;;;;;5146658;27;20063;-74
2022/12/09 09:51:15;;;;;;;75.05;23.70;;;;;;;;;;5127986;27;20126;-71
2022/12/09 09:53:41;;;;;;;81.75;23.75;;;;;;;;;;5151934;27;20051;-70
2022/12/09 09:56:10;;;;;;;79.68;24.88;;;;;;;;;;5138631;27;20050;-73
2022/12/09 09:58:52;;;;;;;94.47;23.95;;;;;;;;;;5125833;27;20050;-71
2022/12/09 10:01:19;;;;;;;91.90;24.15;;;;;;;;;;5135296;27;20075;-75
2022/12/09 10:03:45;;;;;;;;;;;;;;;;;;5145190;27;20038;-73
2022/12/09 10:06:16;;;;;;;74.55;22.65;;;;;;;;;;5155585;27;19934;-74
2022/12/09 10:08:48;;;;;;;79.50;22.30;;;;;;;;;;5137030;27;20035;-78
2022/12/09 10:11:14;;;;;;;82.43;24.50;;;;;;;;;;5138067;27;20049;-78
2022/12/09 10:13:43;;;;;;;82.10;23.52;;;;;;;;;;5137881;27;20043;-78
2022/12/09 10:16:24;;;;;;;78.75;24.17;;;0.90;99.90;;;;;;5156374;27;20051;-78
2022/12/09 10:18:55;;;;;;;81.05;25.10;;;;;;;;;;5156300;27;20436;-78
2022/12/09 10:21:21;;;;;;;77.65;24.30;;;;;;;;;;5155835;27;20398;-78
2022/12/09 10:23:48;;;;;;;75.55;23.05;;;;;;;;;;5156103;27;20054;-79
2022/12/09 10:26:18;;;;;;;80.43;23.35;;;;;;;;;;5137561;27;20099;-78
2022/12/09 10:28:46;;;;;;;75.70;23.98;;;;;;;;;;5156072;27;20562;-78
2022/12/09 10:31:12;;;;;;;71.68;23.08;;;;;;;;;;5155939;27;20039;-75
2022/12/09 10:33:39;;;;;;;86.85;22.40;;;;;;;;;;5155988;27;20179;-77
2022/12/09 10:36:06;;;;;;;76.95;23.30;;;;;;;;;;5155281;27;20073;-76
2022/12/09 10:38:36;;;;;;;75.30;23.65;;;;;;;;;;5137569;27;20133;-76
2022/12/09 10:41:07;;;;;;;80.85;25.05;;;;;;;;;;5155902;27;20043;-74
2022/12/09 10:43:37;;;;;;;79.35;26.85;;;;;;;;;;5137702;27;20077;-77
2022/12/09 10:46:05;;;;;;;84.00;25.80;;;;;;;;;;5141494;27;20066;-78
2022/12/09 10:48:34;;;;;;;81.20;26.23;;;1.30;99.90;;;;;;5153099;27;20094;-75
2022/12/09 10:51:05;;;;;;;83.18;27.27;;;;;;;;;;5134521;27;20180;-77
2022/12/09 10:53:31;;;;;;;76.47;26.50;;;;;;;;;;5154376;27;20050;-74
2022/12/09 10:55:59;;;;;;;75.95;25.65;;;;;;;;;;5154736;27;20134;-73
2022/12/09 10:58:26;;;;;;;79.10;25.65;;;;;;;;;;5137432;27;20058;-73
2022/12/09 11:01:04;;;;;;;82.60;26.15;;;;;;;;;;5137297;27;20046;-73
2022/12/09 11:03:34;;;;;;;88.55;26.48;;;1.20;99.90;;;;;;5155402;27;20047;-73
2022/12/09 11:06:18;;;;;;;77.80;25.02;;;;;;;;;;5155471;27;20125;-72
2022/12/09 11:08:53;;;;;;;91.93;27.15;;;;;;;;;;5153907;27;20546;-71
2022/12/09 11:11:19;;;;;;;100.95;26.80;;;;;;;;;;5155333;27;20043;-72
2022/12/09 11:13:46;;;;;;;86.63;24.77;;;;;;;;;;5155243;27;20043;-71
2022/12/09 11:16:12;;;;;;;94.75;24.85;;;;;;;;;;5155514;27;20043;-72
2022/12/09 11:18:42;;;;;;;99.18;26.80;;;;;;;;;;5155175;27;20320;-71
2022/12/09 11:21:27;;;;;;;91.22;25.88;;;1.10;99.90;;;;;;5136976;27;20043;-72
2022/12/09 11:23:54;;;;;;;130.70;25.67;;;;;;;;;;5155350;27;20047;-72
2022/12/09 11:26:31;;;;;;;92.03;25.67;;;;;;;;;;5136388;27;20051;-72
2022/12/09 11:29:03;;;;;;;82.53;24.15;;;;;;;;;;5147704;27;20053;-72
2022/12/09 11:31:30;;;;;;;93.78;24.35;;;;;;;;;;5152682;27;20042;-73
2022/12/09 11:34:02;;;;;;;101.35;25.77;;;0.80;99.90;;;;;;5153439;27;20443;-73
2022/12/09 11:36:36;;;;;;;104.22;26.25;;;;;;;;;;5130198;27;20086;-72
2022/12/09 11:39:20;;;;;;;94.50;26.30;;;1.30;99.90;;;;;;5129555;27;20055;-72
2022/12/09 11:42:23;;;;;;;101.07;24.50;;;;;;;;;;5133910;27;20103;-72
2022/12/09 11:44:42;;;;;;;78.90;25.27;;;;;;;;;;5130251;27;20051;-72
2022/12/09 11:47:31;;;;;;;86.05;25.83;;;1.10;99.90;;;;;;5133248;27;20059;-72
2022/12/09 11:50:05;;;;;;;111.80;26.25;;;;;;;;;;5133506;27;20118;-72
2022/12/09 11:52:31;;;;;;;85.18;23.92;;;;;;;;;;5111657;28;20043;-72
2022/12/09 11:55:15;;;;;;;105.28;23.58;;;;;;;;;;5121246;27;20410;-72
2022/12/09 11:57:47;;;;;;;73.05;22.85;;;;;;;;;;5133001;27;20504;-72
2022/12/09 12:00:19;;;;;;;82.57;23.63;;;1.10;99.90;;;;;;5133351;27;20050;-72
2022/12/09 12:02:45;;;;;;;87.10;24.08;;;;;;;;;;5133526;27;20121;-72
2022/12/09 12:05:23;;;;;;;71.88;23.58;;;;;;;;;;5132793;27;20043;-72
2022/12/09 12:08:07;;;;;;;71.60;22.48;;;1.30;99.90;;;;;;5133580;27;20053;-72
2022/12/09 12:10:39;;;;;;;71.78;23.48;;;1.10;99.90;;;;;;5133596;27;20043;-72
2022/12/09 12:13:11;;;;;;;70.30;22.08;;;;;;;;;;5133558;27;20053;-72
2022/12/09 12:15:46;;;;;;;74.00;23.30;;;;;;;;;;5133221;27;20055;-72
2022/12/09 12:18:18;;;;;;;74.38;22.65;;;1.50;99.90;;;;;;5133665;27;20130;-72
2022/12/09 12:21:09;;;;;;;81.20;24.10;;;1.10;99.90;;;;;;5132001;27;20045;-72
2022/12/09 12:23:55;;;;;;;69.47;22.52;;;;;;;;;;5133588;27;20038;-72
2022/12/09 12:26:25;;;;;;;75.10;23.48;;;;;;;;;;5091341;27;20525;-72
2022/12/09 12:29:24;;;;;;;75.45;21.63;;;;;;;;;;5132089;27;20043;-72
2022/12/09 12:31:50;;;;;;;80.57;24.13;;;;;;;;;;5087432;27;20055;-73
2022/12/09 12:34:22;;;;;;;71.80;23.92;;;;;;;;;;5133317;27;20047;-73
2022/12/09 12:36:54;;;;;;;78.05;23.13;;;;;;;;;;5146508;27;20082;-73
2022/12/09 12:39:20;;;;;;;74.38;22.85;;;;;;;;;;5153522;27;20648;-73
2022/12/09 12:41:50;;;;;;;72.80;23.40;;;;;;;;;;5153929;27;20042;-72
2022/12/09 12:47:13;;;;;;;76.47;23.55;;;;;;;;;;5153897;27;20115;-73
2022/12/09 12:49:50;;;;;;;78.75;24.60;;;;;;;;;;5153600;27;20069;-73
2022/12/09 12:52:26;;;;;;;76.28;25.70;;;;;;;;;;5153606;27;20084;-73
2022/12/09 12:55:10;;;;;;;74.82;23.98;;;1.80;99.90;;;;;;5153488;27;20627;-73
2022/12/09 12:57:52;;;;;;;67.97;23.08;;;1.90;99.90;;;;;;5153373;27;20046;-73
2022/12/09 13:00:20;;;;;;;74.65;24.17;;;;;;;;;;5153323;27;20042;-73
2022/12/09 13:03:15;;;;;;;67.28;22.70;;;1.90;99.90;;;;;;5135414;27;20082;-73
2022/12/09 13:05:43;;;;;;;63.97;22.08;;;;;;;;;;5135246;27;20066;-73
2022/12/09 13:08:19;;;;;;;69.35;23.40;;;1.90;99.90;;;;;;5153450;27;20436;-73
2022/12/09 13:10:47;;;;;;;56.63;21.30;;;;;;;;;;5153547;27;20058;-72
2022/12/09 13:13:31;;;;;;;53.35;20.90;;;;;;;;;;5153642;27;20054;-72
2022/12/09 13:16:04;;;;;;;54.78;22.45;;;1.80;99.90;;;;;;5153439;27;20537;-72
2022/12/09 13:18:34;;;;;;;61.15;22.90;;;;;;;;;;5153721;27;20122;-73
2022/12/09 13:21:02;;;;;;;62.83;23.08;;;1.30;99.90;;;;;;5153262;27;20707;-73
2022/12/09 13:23:47;;;;;;;65.45;22.83;;;;;;;;;;5135052;27;20386;-73
2022/12/09 13:26:31;;;;;;;67.65;23.05;;;;;;;;;;5153289;27;20054;-72
2022/12/09 13:29:17;;;;;;;63.20;23.08;;;1.80;99.90;;;;;;5153133;27;20136;-72
2022/12/09 13:31:57;;;;;;;65.63;23.15;;;1.50;99.90;;;;;;5154359;27;20141;-73
2022/12/09 13:34:25;;;;;;;71.35;23.52;;;;;;;;;;5157398;27;20046;-73
2022/12/09 13:36:51;;;;;;;64.75;23.80;;;;;;;;;;5138722;27;20058;-72
2022/12/09 13:39:41;;;;;;;64.38;23.17;;;1.50;99.90;;;;;;5157288;27;20050;-72
2022/12/09 13:45:14;;;;;;;73.38;24.20;;;;;;;;;;5157078;27;20555;-73
2022/12/09 13:47:40;;;;;;;75.57;25.40;;;1.30;99.90;;;;;;5157026;27;20427;-73
2022/12/09 13:50:08;;;;;;;65.50;24.00;;;;;;;;;;5157089;27;20047;-73
2022/12/09 13:52:47;;;;;;;74.28;24.77;;;;;;;;;;5157093;27;20452;-73
2022/12/09 13:55:22;;;;;;;90.45;30.30;;;;;;;;;;5156871;27;20062;-73
2022/12/09 13:58:24;;;;;;;82.18;27.70;;;1.30;99.90;;;;;;5156595;27;20050;-73
2022/12/09 14:01:02;;;;;;;79.03;26.85;;;;;;;;;;5052314;28;20087;-73
2022/12/09 14:03:37;;;;;;;99.95;28.45;;;;;;;;;;5143960;27;20047;-73
2022/12/09 14:06:16;;;;;;;98.35;30.05;;;1.00;99.90;;;;;;5156658;27;20046;-73
2022/12/09 14:08:45;;;;;;;93.80;27.92;;;;;;;;;;5156768;27;20042;-72
2022/12/09 14:11:39;;;;;;;108.55;30.80;;;1.10;99.90;;;;;;5156669;27;20042;-73
2022/12/09 14:14:23;;;;;;;107.85;29.63;;;;;;;;;;5138351;27;20054;-73
2022/12/09 14:16:49;;;;;;;103.78;29.92;;;;;;;;;;5156683;27;20047;-73
2022/12/09 14:19:35;;;;;;;103.07;28.30;;;;;;;;;;5156629;27;20051;-73
2022/12/09 14:22:18;;;;;;;104.07;29.58;;;;;;;;;;5137822;27;20585;-73
2022/12/09 14:24:51;;;;;;;90.78;27.33;;;;;;;;;;5156569;27;20050;-74
2022/12/09 14:27:21;;;;;;;104.32;29.38;;;;;;;;;;5156215;27;20070;-73
2022/12/09 14:29:50;;;;;;;103.28;28.83;;;;;;;;;;5156387;27;20142;-73